< Typhoon 201418 2014 Season Typhoon 201420 >
Typhoon 201419 (VONGFONG)
General InformationDetailed Track InformationTrack Information on Google MapsForecast History on Google MapsAccess Analytics MapList of All Images || NewsDisaster Info.WeblogTrackbackTyphoon FrontTwiphoonTyphoon Now!Typhoon ImaginationDisaster Info. XMLResourceGoogle EarthGE AnimationAtom FeedGeoJSON
Detalied Best Track Wind (Time Zone = UTC)
Year Month Day Hour Lat. Long. Wind (kt) Gust (kt) Direc. of Major Storm Axis Radius of Major Storm Axis (nm) Radius of Minor Storm Axis (nm) Direc. of Major Gale Axis Radius of Major Gale Axis (nm) Radius of Minor Gale Axis (nm) Image
2014 10 2 12 7.3 162.1 0 0 - - - - - - Image
2014 10 2 18 8.0 160.8 0 0 - - - - - - Image
2014 10 3 00 8.4 159.9 0 0 - - - - - - Image
2014 10 3 06 8.5 158.7 0 0 - - - - - - Image
2014 10 3 12 8.7 157.5 0 0 - - - - - - Image
2014 10 3 18 9.0 156.2 35 0 - - - N 150 120 Image
2014 10 4 00 9.6 155.1 40 0 - - - N 150 120 Image
2014 10 4 06 10.4 154.0 45 0 - - - N 150 120 Image
2014 10 4 12 11.1 152.9 50 0 - - - N 150 120 Image
2014 10 4 18 12.0 151.5 55 0 symmetric 50 50 N 150 120 Image
2014 10 5 00 12.5 150.0 60 0 symmetric 60 60 N 150 120 Image
2014 10 5 06 13.3 148.5 60 0 symmetric 60 60 N 150 120 Image
2014 10 5 12 13.8 146.9 60 0 symmetric 60 60 N 150 120 Image
2014 10 5 18 14.5 145.1 60 0 symmetric 60 60 N 150 120 Image
2014 10 6 00 15.1 143.3 60 0 symmetric 60 60 N 150 120 Image
2014 10 6 06 15.8 141.3 60 0 symmetric 60 60 N 150 120 Image
2014 10 6 12 16.5 139.7 60 0 symmetric 60 60 N 150 120 Image
2014 10 6 18 16.8 138.1 70 0 symmetric 60 60 N 150 120 Image
2014 10 7 00 16.9 136.5 80 0 symmetric 70 70 NE 180 150 Image
2014 10 7 06 17.3 135.4 90 0 symmetric 80 80 NE 180 150 Image
2014 10 7 12 17.4 134.2 105 0 symmetric 100 100 NE 270 180 Image
2014 10 7 18 17.7 133.2 115 0 symmetric 110 110 NE 270 180 Image
2014 10 8 00 17.9 132.2 115 0 symmetric 110 110 N 270 210 Image
2014 10 8 06 18.2 131.5 115 0 symmetric 110 110 N 270 210 Image
2014 10 8 12 18.4 131.0 115 0 symmetric 110 110 N 270 210 Image
2014 10 8 18 18.8 130.5 110 0 symmetric 110 110 N 270 210 Image
2014 10 9 00 19.2 130.0 110 0 symmetric 110 110 N 270 210 Image
2014 10 9 06 19.7 129.9 105 0 symmetric 110 110 N 270 240 Image
2014 10 9 12 20.2 129.6 100 0 symmetric 110 110 N 350 300 Image
2014 10 9 18 20.8 129.4 100 0 symmetric 120 120 N 350 300 Image
2014 10 10 00 21.4 129.4 100 0 symmetric 120 120 N 400 350 Image
2014 10 10 06 22.2 129.3 100 0 symmetric 120 120 N 400 350 Image
2014 10 10 12 23.1 129.2 95 0 symmetric 140 140 N 400 350 Image
2014 10 10 18 23.8 129.0 90 0 symmetric 140 140 N 400 350 Image
2014 10 10 21 24.1 128.9 90 0 symmetric 140 140 N 400 350 Image
2014 10 11 00 24.4 128.8 90 0 symmetric 140 140 N 400 350 Image
2014 10 11 03 24.9 128.7 85 0 symmetric 150 150 N 375 325 Image
2014 10 11 06 25.3 128.6 85 0 symmetric 150 150 N 375 325 Image
2014 10 11 09 25.6 128.4 85 0 symmetric 150 150 N 375 325 Image
2014 10 11 12 26.1 128.1 85 0 symmetric 150 150 N 375 325 Image
2014 10 11 15 26.4 128.0 80 0 N 150 120 N 375 325 Image
2014 10 11 18 26.9 127.7 80 0 N 150 120 N 375 325 Image
2014 10 11 21 27.4 127.5 80 0 N 150 120 N 375 325 Image
2014 10 12 00 27.7 127.4 70 0 N 150 120 N 375 325 Image
2014 10 12 03 28.1 127.1 70 0 N 150 120 N 375 325 Image
2014 10 12 06 28.8 127.1 65 0 N 150 120 symmetric 375 375 Image
2014 10 12 09 29.3 127.3 65 0 N 150 120 symmetric 375 375 Image
2014 10 12 12 29.7 127.6 65 0 N 150 120 symmetric 375 375 Image
2014 10 12 15 30.2 128.2 65 0 N 150 120 symmetric 375 375 Image
2014 10 12 18 30.6 129.0 65 0 N 150 120 symmetric 375 375 Image
2014 10 12 21 30.9 129.6 65 0 N 150 120 symmetric 375 375 Image
2014 10 12 23 31.1 130.0 65 0 N 150 120 symmetric 375 375 Image
2014 10 13 00 31.3 130.3 60 0 N 150 120 symmetric 375 375 Image
2014 10 13 03 32.2 131.6 60 0 N 150 120 symmetric 375 375 Image
2014 10 13 05 32.9 132.4 60 0 N 150 120 symmetric 375 375 Image
2014 10 13 06 33.1 133.0 60 0 N 150 120 symmetric 375 375 Image
2014 10 13 09 33.9 134.2 55 0 symmetric 130 130 SE 400 350 Image
2014 10 13 10 34.2 134.6 55 0 symmetric 130 130 SE 400 350 Image
2014 10 13 11 34.4 135.1 50 0 - - - SE 400 350 Image
2014 10 13 12 34.5 136.0 50 0 - - - SE 400 350 Image
2014 10 13 15 35.6 136.9 50 0 - - - SE 400 350 Image
2014 10 13 18 36.5 139.7 50 0 - - - SE 400 350 Image
2014 10 13 21 38.0 141.5 55 0 S 130 100 SE 400 350 Image
2014 10 14 00 39.0 143.2 0 0 - - - - - - Image
2014 10 14 06 40.5 146.0 0 0 - - - - - - Image
2014 10 14 12 42.0 149.4 0 0 - - - - - - Image
2014 10 14 18 44.1 153.1 0 0 - - - - - - Image
2014 10 15 00 46.5 156.2 0 0 - - - - - - Image
2014 10 15 06 48.4 160.4 0 0 - - - - - - Image
2014 10 15 12 49.9 164.5 0 0 - - - - - - Image
2014 10 15 18 51.2 169.3 0 0 - - - - - - Image
2014 10 16 00 51.7 173.4 0 0 - - - - - - Image
2014 10 16 06 51.5 177.8 0 0 - - - - - - Image
2014 10 16 12 51.0 183.0 0 0 - - - - - - Image
Japan Meteorological Agency Best Track Data | Correction Date : 2014-11-21
< Typhoon 201418 2014 Season Typhoon 201420 >

Help